createdAt,value
2024-04-18T02:26:55.171Z,10
2024-04-18T02:56:35.087Z,10
2024-04-18T03:58:49.161Z,17
2024-04-18T04:59:34.715Z,14
2024-04-18T05:28:42.118Z,14
2024-04-18T05:57:45.017Z,21
2024-04-18T06:26:46.679Z,22
2024-04-18T06:55:31.242Z,33
2024-04-18T07:24:32.833Z,21
2024-04-18T07:53:38.866Z,19
2024-04-18T08:22:50.133Z,14
2024-04-18T08:51:57.719Z,11
2024-04-18T09:20:54.577Z,9
2024-04-18T09:49:58.885Z,17
2024-04-18T10:19:09.752Z,5
2024-04-18T10:48:14.077Z,21
2024-04-18T11:17:08.498Z,22
2024-04-18T11:46:13.011Z,18
2024-04-18T12:15:08.491Z,20
2024-04-18T12:44:07.713Z,14
2024-04-18T13:12:56.063Z,11
2024-04-18T13:42:15.227Z,3
2024-04-18T14:11:16.778Z,7
2024-04-18T14:40:13.991Z,11
2024-04-18T15:09:14.735Z,7
2024-04-18T15:38:20.390Z,8
2024-04-18T16:07:40.712Z,7
2024-04-18T16:37:04.343Z,7
2024-04-18T17:05:22.413Z,11
2024-04-18T17:33:49.752Z,6
2024-04-18T18:02:53.977Z,4
2024-04-18T18:31:43.332Z,7
2024-04-18T19:00:39.837Z,7
2024-04-18T19:29:36.341Z,9
2024-04-18T19:30:18.901Z,7
2024-04-18T19:58:49.480Z,7
2024-04-18T20:27:53.953Z,7
2024-04-18T20:56:58.082Z,8
2024-04-18T21:26:12.806Z,7
2024-04-18T21:56:12.887Z,8
2024-04-18T22:24:42.133Z,7
2024-04-18T22:53:44.477Z,10
2024-04-18T23:22:40.987Z,10
2024-04-18T23:51:51.794Z,10
